sensor_id;sensor_type;location;lat;lon;timestamp;P1;durP1;ratioP1;P2;durP2;ratioP2
291;SDS011;23311;48.776;9.162;2022-10-23T00:01:14;7.23;;;6.20;;
291;SDS011;23311;48.776;9.162;2022-10-23T00:03:45;7.43;;;6.50;;
291;SDS011;23311;48.776;9.162;2022-10-23T00:06:14;8.93;;;7.60;;
291;SDS011;23311;48.776;9.162;2022-10-23T00:08:42;10.30;;;7.10;;
291;SDS011;23311;48.776;9.162;2022-10-23T00:11:13;9.47;;;7.53;;
291;SDS011;23311;48.776;9.162;2022-10-23T00:13:43;12.63;;;8.40;;
291;SDS011;23311;48.776;9.162;2022-10-23T00:16:12;13.50;;;9.20;;
291;SDS011;23311;48.776;9.162;2022-10-23T00:18:40;14.03;;;9.00;;
291;SDS011;23311;48.776;9.162;2022-10-23T00:21:11;10.73;;;9.20;;
291;SDS011;23311;48.776;9.162;2022-10-23T00:23:40;9.40;;;8.50;;
291;SDS011;23311;48.776;9.162;2022-10-23T00:26:08;11.43;;;8.13;;
291;SDS011;23311;48.776;9.162;2022-10-23T00:28:40;9.90;;;8.73;;
291;SDS011;23311;48.776;9.162;2022-10-23T00:31:09;13.67;;;9.73;;
291;SDS011;23311;48.776;9.162;2022-10-23T00:33:37;20.13;;;9.77;;
291;SDS011;23311;48.776;9.162;2022-10-23T00:36:06;12.87;;;9.77;;
291;SDS011;23311;48.776;9.162;2022-10-23T00:38:37;8.20;;;7.27;;
291;SDS011;23311;48.776;9.162;2022-10-23T00:41:06;14.53;;;8.43;;
291;SDS011;23311;48.776;9.162;2022-10-23T00:43:54;10.97;;;8.40;;
291;SDS011;23311;48.776;9.162;2022-10-23T00:46:28;9.20;;;7.00;;
291;SDS011;23311;48.776;9.162;2022-10-23T00:48:56;7.50;;;7.10;;
291;SDS011;23311;48.776;9.162;2022-10-23T00:51:26;8.47;;;6.73;;
291;SDS011;23311;48.776;9.162;2022-10-23T00:53:59;7.37;;;6.47;;
291;SDS011;23311;48.776;9.162;2022-10-23T00:56:48;8.80;;;7.30;;
291;SDS011;23311;48.776;9.162;2022-10-23T00:59:16;10.47;;;7.20;;
291;SDS011;23311;48.776;9.162;2022-10-23T01:01:44;8.20;;;6.83;;
291;SDS011;23311;48.776;9.162;2022-10-23T01:04:13;10.80;;;8.93;;
291;SDS011;23311;48.776;9.162;2022-10-23T01:06:43;8.60;;;8.13;;
291;SDS011;23311;48.776;9.162;2022-10-23T01:09:20;8.50;;;6.90;;
291;SDS011;23311;48.776;9.162;2022-10-23T01:11:55;9.10;;;5.67;;
291;SDS011;23311;48.776;9.162;2022-10-23T01:14:28;8.13;;;5.10;;
291;SDS011;23311;48.776;9.162;2022-10-23T01:17:05;4.93;;;3.20;;
291;SDS011;23311;48.776;9.162;2022-10-23T01:19:42;5.90;;;3.60;;
291;SDS011;23311;48.776;9.162;2022-10-23T01:22:26;3.30;;;3.10;;
291;SDS011;23311;48.776;9.162;2022-10-23T01:25:08;5.87;;;3.33;;
291;SDS011;23311;48.776;9.162;2022-10-23T01:27:47;7.73;;;3.77;;
291;SDS011;23311;48.776;9.162;2022-10-23T01:30:20;4.73;;;3.50;;
291;SDS011;23311;48.776;9.162;2022-10-23T01:32:49;5.97;;;3.50;;
291;SDS011;23311;48.776;9.162;2022-10-23T01:35:21;4.43;;;3.20;;
291;SDS011;23311;48.776;9.162;2022-10-23T01:37:52;3.07;;;2.50;;
291;SDS011;23311;48.776;9.162;2022-10-23T01:40:28;5.57;;;3.27;;
291;SDS011;23311;48.776;9.162;2022-10-23T01:43:03;5.97;;;3.47;;
291;SDS011;23311;48.776;9.162;2022-10-23T01:45:36;6.37;;;3.87;;
291;SDS011;23311;48.776;9.162;2022-10-23T01:48:07;5.53;;;3.20;;
291;SDS011;23311;48.776;9.162;2022-10-23T01:50:40;5.40;;;3.97;;
291;SDS011;23311;48.776;9.162;2022-10-23T01:53:09;6.20;;;3.80;;
291;SDS011;23311;48.776;9.162;2022-10-23T01:55:37;4.53;;;4.23;;
291;SDS011;23311;48.776;9.162;2022-10-23T01:58:14;7.67;;;4.53;;
291;SDS011;23311;48.776;9.162;2022-10-23T02:00:46;7.80;;;6.27;;
291;SDS011;23311;48.776;9.162;2022-10-23T02:03:17;8.50;;;6.93;;
291;SDS011;23311;48.776;9.162;2022-10-23T02:05:46;6.00;;;5.60;;
291;SDS011;23311;48.776;9.162;2022-10-23T02:08:14;8.70;;;6.00;;
291;SDS011;23311;48.776;9.162;2022-10-23T02:10:43;10.60;;;5.43;;
291;SDS011;23311;48.776;9.162;2022-10-23T02:13:21;5.40;;;4.87;;
291;SDS011;23311;48.776;9.162;2022-10-23T02:15:56;9.10;;;5.13;;
291;SDS011;23311;48.776;9.162;2022-10-23T02:18:32;7.93;;;5.27;;
291;SDS011;23311;48.776;9.162;2022-10-23T02:21:05;6.57;;;5.30;;
291;SDS011;23311;48.776;9.162;2022-10-23T02:23:37;7.63;;;5.20;;
291;SDS011;23311;48.776;9.162;2022-10-23T02:26:11;8.00;;;6.00;;
291;SDS011;23311;48.776;9.162;2022-10-23T02:28:46;8.00;;;5.27;;
291;SDS011;23311;48.776;9.162;2022-10-23T02:31:17;7.33;;;5.70;;
291;SDS011;23311;48.776;9.162;2022-10-23T02:33:48;7.47;;;6.43;;
291;SDS011;23311;48.776;9.162;2022-10-23T02:36:17;10.27;;;5.73;;
291;SDS011;23311;48.776;9.162;2022-10-23T02:38:45;6.93;;;5.40;;
291;SDS011;23311;48.776;9.162;2022-10-23T02:41:18;10.40;;;6.40;;
291;SDS011;23311;48.776;9.162;2022-10-23T02:44:13;7.57;;;5.53;;
291;SDS011;23311;48.776;9.162;2022-10-23T02:46:52;9.47;;;6.27;;
291;SDS011;23311;48.776;9.162;2022-10-23T02:49:27;8.53;;;6.20;;
291;SDS011;23311;48.776;9.162;2022-10-23T02:52:03;8.00;;;5.50;;
291;SDS011;23311;48.776;9.162;2022-10-23T02:54:43;7.20;;;5.87;;
291;SDS011;23311;48.776;9.162;2022-10-23T02:57:22;12.87;;;6.60;;
291;SDS011;23311;48.776;9.162;2022-10-23T03:00:00;8.73;;;6.17;;
291;SDS011;23311;48.776;9.162;2022-10-23T03:02:34;10.83;;;6.27;;
291;SDS011;23311;48.776;9.162;2022-10-23T03:05:07;7.37;;;6.23;;
291;SDS011;23311;48.776;9.162;2022-10-23T03:07:38;7.63;;;6.80;;
291;SDS011;23311;48.776;9.162;2022-10-23T03:10:08;7.77;;;7.13;;
291;SDS011;23311;48.776;9.162;2022-10-23T03:12:36;7.77;;;6.33;;
291;SDS011;23311;48.776;9.162;2022-10-23T03:15:09;7.10;;;6.70;;
291;SDS011;23311;48.776;9.162;2022-10-23T03:17:38;10.53;;;6.63;;
291;SDS011;23311;48.776;9.162;2022-10-23T03:20:06;7.30;;;5.80;;
291;SDS011;23311;48.776;9.162;2022-10-23T03:22:35;10.57;;;6.60;;
291;SDS011;23311;48.776;9.162;2022-10-23T03:25:04;6.70;;;6.10;;
291;SDS011;23311;48.776;9.162;2022-10-23T03:27:33;10.00;;;6.17;;
291;SDS011;23311;48.776;9.162;2022-10-23T03:30:02;7.13;;;5.80;;
291;SDS011;23311;48.776;9.162;2022-10-23T03:32:32;9.03;;;5.53;;
291;SDS011;23311;48.776;9.162;2022-10-23T03:35:00;7.90;;;5.17;;
291;SDS011;23311;48.776;9.162;2022-10-23T03:37:29;6.43;;;5.20;;
291;SDS011;23311;48.776;9.162;2022-10-23T03:39:57;8.20;;;5.80;;
291;SDS011;23311;48.776;9.162;2022-10-23T03:42:25;8.30;;;6.23;;
291;SDS011;23311;48.776;9.162;2022-10-23T03:44:53;8.43;;;6.00;;
291;SDS011;23311;48.776;9.162;2022-10-23T03:47:21;8.40;;;6.37;;
291;SDS011;23311;48.776;9.162;2022-10-23T03:49:50;7.50;;;5.90;;
291;SDS011;23311;48.776;9.162;2022-10-23T03:52:18;5.77;;;5.07;;
291;SDS011;23311;48.776;9.162;2022-10-23T03:54:46;9.43;;;5.87;;
291;SDS011;23311;48.776;9.162;2022-10-23T03:57:14;10.47;;;5.03;;
291;SDS011;23311;48.776;9.162;2022-10-23T03:59:42;9.50;;;6.30;;
291;SDS011;23311;48.776;9.162;2022-10-23T04:02:10;8.70;;;6.83;;
291;SDS011;23311;48.776;9.162;2022-10-23T04:04:38;9.67;;;6.60;;
291;SDS011;23311;48.776;9.162;2022-10-23T04:07:08;7.20;;;5.80;;
291;SDS011;23311;48.776;9.162;2022-10-23T04:09:36;9.20;;;6.77;;
291;SDS011;23311;48.776;9.162;2022-10-23T04:12:05;5.97;;;5.63;;
291;SDS011;23311;48.776;9.162;2022-10-23T04:14:34;6.97;;;5.57;;
291;SDS011;23311;48.776;9.162;2022-10-23T04:17:02;7.33;;;6.93;;
291;SDS011;23311;48.776;9.162;2022-10-23T04:19:30;6.87;;;6.43;;
291;SDS011;23311;48.776;9.162;2022-10-23T04:21:58;6.80;;;6.30;;
291;SDS011;23311;48.776;9.162;2022-10-23T04:24:28;7.90;;;6.30;;
291;SDS011;23311;48.776;9.162;2022-10-23T04:26:56;8.00;;;6.47;;
291;SDS011;23311;48.776;9.162;2022-10-23T04:29:24;7.13;;;5.50;;
291;SDS011;23311;48.776;9.162;2022-10-23T04:31:53;8.63;;;6.73;;
291;SDS011;23311;48.776;9.162;2022-10-23T04:34:21;9.00;;;6.33;;
291;SDS011;23311;48.776;9.162;2022-10-23T04:36:50;6.90;;;5.70;;
291;SDS011;23311;48.776;9.162;2022-10-23T04:39:18;8.57;;;6.90;;
291;SDS011;23311;48.776;9.162;2022-10-23T04:41:47;9.10;;;6.60;;
291;SDS011;23311;48.776;9.162;2022-10-23T04:44:15;7.70;;;5.60;;
291;SDS011;23311;48.776;9.162;2022-10-23T04:46:44;11.37;;;5.90;;
291;SDS011;23311;48.776;9.162;2022-10-23T04:49:12;7.63;;;6.33;;
291;SDS011;23311;48.776;9.162;2022-10-23T04:51:40;6.17;;;5.50;;
291;SDS011;23311;48.776;9.162;2022-10-23T04:54:08;5.93;;;5.20;;
291;SDS011;23311;48.776;9.162;2022-10-23T04:56:36;7.50;;;4.87;;
291;SDS011;23311;48.776;9.162;2022-10-23T04:59:05;4.60;;;4.30;;
291;SDS011;23311;48.776;9.162;2022-10-23T05:01:33;4.13;;;3.93;;
291;SDS011;23311;48.776;9.162;2022-10-23T05:04:02;7.67;;;4.97;;
291;SDS011;23311;48.776;9.162;2022-10-23T05:06:30;9.63;;;4.10;;
291;SDS011;23311;48.776;9.162;2022-10-23T05:08:58;5.20;;;4.60;;
291;SDS011;23311;48.776;9.162;2022-10-23T05:11:27;6.50;;;4.77;;
291;SDS011;23311;48.776;9.162;2022-10-23T05:13:55;6.50;;;5.03;;
291;SDS011;23311;48.776;9.162;2022-10-23T05:16:27;5.13;;;4.80;;
291;SDS011;23311;48.776;9.162;2022-10-23T05:19:03;6.37;;;4.60;;
291;SDS011;23311;48.776;9.162;2022-10-23T05:21:34;5.17;;;4.20;;
291;SDS011;23311;48.776;9.162;2022-10-23T05:24:04;6.70;;;5.60;;
291;SDS011;23311;48.776;9.162;2022-10-23T05:26:32;8.60;;;5.40;;
291;SDS011;23311;48.776;9.162;2022-10-23T05:29:00;8.03;;;4.80;;
291;SDS011;23311;48.776;9.162;2022-10-23T05:31:30;6.10;;;4.40;;
291;SDS011;23311;48.776;9.162;2022-10-23T05:34:00;8.23;;;5.63;;
291;SDS011;23311;48.776;9.162;2022-10-23T05:36:29;9.67;;;5.70;;
291;SDS011;23311;48.776;9.162;2022-10-23T05:38:58;7.00;;;4.20;;
291;SDS011;23311;48.776;9.162;2022-10-23T05:41:26;7.03;;;4.70;;
291;SDS011;23311;48.776;9.162;2022-10-23T05:43:54;9.70;;;5.23;;
291;SDS011;23311;48.776;9.162;2022-10-23T05:46:22;4.47;;;4.17;;
291;SDS011;23311;48.776;9.162;2022-10-23T05:48:51;5.67;;;4.80;;
291;SDS011;23311;48.776;9.162;2022-10-23T05:51:20;4.50;;;4.03;;
291;SDS011;23311;48.776;9.162;2022-10-23T05:53:48;8.57;;;4.73;;
291;SDS011;23311;48.776;9.162;2022-10-23T05:56:17;7.50;;;5.27;;
291;SDS011;23311;48.776;9.162;2022-10-23T05:58:46;6.73;;;4.53;;
291;SDS011;23311;48.776;9.162;2022-10-23T06:01:14;9.77;;;5.33;;
291;SDS011;23311;48.776;9.162;2022-10-23T06:03:43;6.70;;;5.07;;
291;SDS011;23311;48.776;9.162;2022-10-23T06:06:13;5.33;;;4.90;;
291;SDS011;23311;48.776;9.162;2022-10-23T06:08:41;8.23;;;4.60;;
291;SDS011;23311;48.776;9.162;2022-10-23T06:11:10;9.67;;;7.13;;
291;SDS011;23311;48.776;9.162;2022-10-23T06:13:41;16.43;;;9.77;;
291;SDS011;23311;48.776;9.162;2022-10-23T06:16:10;6.60;;;4.67;;
291;SDS011;23311;48.776;9.162;2022-10-23T06:18:40;6.90;;;5.13;;
291;SDS011;23311;48.776;9.162;2022-10-23T06:21:08;7.83;;;5.40;;
291;SDS011;23311;48.776;9.162;2022-10-23T06:23:38;8.97;;;4.70;;
291;SDS011;23311;48.776;9.162;2022-10-23T06:26:08;8.10;;;4.67;;
291;SDS011;23311;48.776;9.162;2022-10-23T06:28:37;5.60;;;5.30;;
291;SDS011;23311;48.776;9.162;2022-10-23T06:31:05;6.30;;;4.60;;
291;SDS011;23311;48.776;9.162;2022-10-23T06:33:34;8.23;;;5.47;;
291;SDS011;23311;48.776;9.162;2022-10-23T06:36:03;5.63;;;4.57;;
291;SDS011;23311;48.776;9.162;2022-10-23T06:38:35;6.20;;;4.03;;
291;SDS011;23311;48.776;9.162;2022-10-23T06:41:06;6.20;;;4.67;;
291;SDS011;23311;48.776;9.162;2022-10-23T06:43:38;5.17;;;4.53;;
291;SDS011;23311;48.776;9.162;2022-10-23T06:46:06;4.67;;;4.37;;
291;SDS011;23311;48.776;9.162;2022-10-23T06:48:35;4.07;;;3.87;;
291;SDS011;23311;48.776;9.162;2022-10-23T06:51:04;4.53;;;4.23;;
291;SDS011;23311;48.776;9.162;2022-10-23T06:53:34;5.87;;;4.87;;
291;SDS011;23311;48.776;9.162;2022-10-23T06:56:04;5.33;;;4.43;;
291;SDS011;23311;48.776;9.162;2022-10-23T06:58:35;5.53;;;4.63;;
291;SDS011;23311;48.776;9.162;2022-10-23T07:01:05;5.23;;;4.37;;
291;SDS011;23311;48.776;9.162;2022-10-23T07:03:35;9.67;;;4.87;;
291;SDS011;23311;48.776;9.162;2022-10-23T07:06:04;7.60;;;5.73;;
291;SDS011;23311;48.776;9.162;2022-10-23T07:08:33;6.17;;;4.63;;
291;SDS011;23311;48.776;9.162;2022-10-23T07:11:03;5.80;;;4.97;;
291;SDS011;23311;48.776;9.162;2022-10-23T07:13:33;5.10;;;4.80;;
291;SDS011;23311;48.776;9.162;2022-10-23T07:16:07;6.33;;;5.47;;
291;SDS011;23311;48.776;9.162;2022-10-23T07:18:36;6.70;;;4.77;;
291;SDS011;23311;48.776;9.162;2022-10-23T07:21:05;4.27;;;4.00;;
291;SDS011;23311;48.776;9.162;2022-10-23T07:23:33;5.33;;;4.13;;
291;SDS011;23311;48.776;9.162;2022-10-23T07:26:04;4.87;;;4.37;;
291;SDS011;23311;48.776;9.162;2022-10-23T07:28:33;5.70;;;4.47;;
291;SDS011;23311;48.776;9.162;2022-10-23T07:31:02;5.77;;;3.60;;
291;SDS011;23311;48.776;9.162;2022-10-23T07:33:30;7.40;;;4.40;;
291;SDS011;23311;48.776;9.162;2022-10-23T07:35:58;5.23;;;4.30;;
291;SDS011;23311;48.776;9.162;2022-10-23T07:38:26;4.10;;;3.83;;
291;SDS011;23311;48.776;9.162;2022-10-23T07:40:55;3.50;;;3.30;;
291;SDS011;23311;48.776;9.162;2022-10-23T07:43:26;4.90;;;3.40;;
291;SDS011;23311;48.776;9.162;2022-10-23T07:45:54;3.67;;;3.47;;
291;SDS011;23311;48.776;9.162;2022-10-23T07:48:22;4.90;;;2.73;;
291;SDS011;23311;48.776;9.162;2022-10-23T07:50:52;3.10;;;2.57;;
291;SDS011;23311;48.776;9.162;2022-10-23T07:53:24;2.23;;;2.00;;
291;SDS011;23311;48.776;9.162;2022-10-23T07:55:52;5.43;;;2.20;;
291;SDS011;23311;48.776;9.162;2022-10-23T07:58:21;3.10;;;2.67;;
291;SDS011;23311;48.776;9.162;2022-10-23T08:00:52;1.47;;;1.37;;
291;SDS011;23311;48.776;9.162;2022-10-23T08:03:24;1.83;;;1.30;;
291;SDS011;23311;48.776;9.162;2022-10-23T08:05:52;2.17;;;1.40;;
291;SDS011;23311;48.776;9.162;2022-10-23T08:08:20;2.90;;;1.60;;
291;SDS011;23311;48.776;9.162;2022-10-23T08:10:50;2.67;;;1.70;;
291;SDS011;23311;48.776;9.162;2022-10-23T08:13:20;4.10;;;1.27;;
291;SDS011;23311;48.776;9.162;2022-10-23T08:15:48;2.60;;;1.10;;
291;SDS011;23311;48.776;9.162;2022-10-23T08:18:18;2.27;;;1.57;;
291;SDS011;23311;48.776;9.162;2022-10-23T08:20:47;1.43;;;1.20;;
291;SDS011;23311;48.776;9.162;2022-10-23T08:23:17;1.70;;;1.70;;
291;SDS011;23311;48.776;9.162;2022-10-23T08:25:46;1.37;;;1.37;;
291;SDS011;23311;48.776;9.162;2022-10-23T08:28:14;2.23;;;1.30;;
291;SDS011;23311;48.776;9.162;2022-10-23T08:30:42;4.53;;;2.33;;
291;SDS011;23311;48.776;9.162;2022-10-23T08:33:12;2.87;;;2.17;;
291;SDS011;23311;48.776;9.162;2022-10-23T08:35:40;4.87;;;3.10;;
291;SDS011;23311;48.776;9.162;2022-10-23T08:38:08;2.67;;;2.50;;
291;SDS011;23311;48.776;9.162;2022-10-23T08:40:37;9.50;;;3.60;;
291;SDS011;23311;48.776;9.162;2022-10-23T08:43:11;5.73;;;3.37;;
291;SDS011;23311;48.776;9.162;2022-10-23T08:45:44;6.00;;;3.10;;
291;SDS011;23311;48.776;9.162;2022-10-23T08:48:18;2.87;;;2.47;;
291;SDS011;23311;48.776;9.162;2022-10-23T08:50:51;8.20;;;3.33;;
291;SDS011;23311;48.776;9.162;2022-10-23T08:53:25;4.80;;;3.47;;
291;SDS011;23311;48.776;9.162;2022-10-23T08:55:58;5.97;;;3.30;;
291;SDS011;23311;48.776;9.162;2022-10-23T08:58:33;5.80;;;3.50;;
291;SDS011;23311;48.776;9.162;2022-10-23T09:01:19;4.70;;;3.40;;
291;SDS011;23311;48.776;9.162;2022-10-23T09:04:03;6.90;;;3.30;;
291;SDS011;23311;48.776;9.162;2022-10-23T09:06:34;3.87;;;2.93;;
291;SDS011;23311;48.776;9.162;2022-10-23T09:09:22;6.00;;;2.50;;
291;SDS011;23311;48.776;9.162;2022-10-23T09:12:08;2.83;;;2.00;;
291;SDS011;23311;48.776;9.162;2022-10-23T09:14:47;1.83;;;1.60;;
291;SDS011;23311;48.776;9.162;2022-10-23T09:17:23;1.90;;;1.13;;
291;SDS011;23311;48.776;9.162;2022-10-23T09:19:54;1.60;;;1.30;;
291;SDS011;23311;48.776;9.162;2022-10-23T09:22:28;1.40;;;1.30;;
291;SDS011;23311;48.776;9.162;2022-10-23T09:24:56;6.17;;;1.10;;
291;SDS011;23311;48.776;9.162;2022-10-23T09:27:24;2.03;;;0.83;;
291;SDS011;23311;48.776;9.162;2022-10-23T09:29:53;1.30;;;0.87;;
291;SDS011;23311;48.776;9.162;2022-10-23T09:32:31;1.93;;;1.30;;
291;SDS011;23311;48.776;9.162;2022-10-23T09:35:02;1.00;;;1.00;;
291;SDS011;23311;48.776;9.162;2022-10-23T09:37:32;3.40;;;1.00;;
291;SDS011;23311;48.776;9.162;2022-10-23T09:40:13;2.33;;;1.10;;
291;SDS011;23311;48.776;9.162;2022-10-23T09:42:52;1.60;;;1.27;;
291;SDS011;23311;48.776;9.162;2022-10-23T09:45:26;1.87;;;1.23;;
291;SDS011;23311;48.776;9.162;2022-10-23T09:48:03;3.57;;;2.20;;
291;SDS011;23311;48.776;9.162;2022-10-23T09:50:34;2.30;;;2.07;;
291;SDS011;23311;48.776;9.162;2022-10-23T09:53:02;7.00;;;3.03;;
291;SDS011;23311;48.776;9.162;2022-10-23T09:55:30;3.10;;;2.70;;
291;SDS011;23311;48.776;9.162;2022-10-23T09:57:59;2.70;;;2.30;;
291;SDS011;23311;48.776;9.162;2022-10-23T10:00:27;3.30;;;2.23;;
291;SDS011;23311;48.776;9.162;2022-10-23T10:02:56;2.67;;;1.83;;
291;SDS011;23311;48.776;9.162;2022-10-23T10:05:27;4.40;;;2.70;;
291;SDS011;23311;48.776;9.162;2022-10-23T10:07:59;3.50;;;2.30;;
291;SDS011;23311;48.776;9.162;2022-10-23T10:10:33;1.70;;;1.60;;
291;SDS011;23311;48.776;9.162;2022-10-23T10:13:06;3.60;;;2.13;;
291;SDS011;23311;48.776;9.162;2022-10-23T10:15:49;4.27;;;2.30;;
291;SDS011;23311;48.776;9.162;2022-10-23T10:18:23;5.67;;;2.17;;
291;SDS011;23311;48.776;9.162;2022-10-23T10:20:59;2.30;;;2.03;;
291;SDS011;23311;48.776;9.162;2022-10-23T10:23:40;6.17;;;2.40;;
291;SDS011;23311;48.776;9.162;2022-10-23T10:26:16;2.67;;;2.10;;
291;SDS011;23311;48.776;9.162;2022-10-23T10:29:04;4.07;;;2.20;;
291;SDS011;23311;48.776;9.162;2022-10-23T10:31:43;3.40;;;1.87;;
291;SDS011;23311;48.776;9.162;2022-10-23T10:34:20;2.50;;;2.00;;
291;SDS011;23311;48.776;9.162;2022-10-23T10:36:54;6.47;;;2.00;;
291;SDS011;23311;48.776;9.162;2022-10-23T10:39:33;2.33;;;1.40;;
291;SDS011;23311;48.776;9.162;2022-10-23T10:42:15;2.43;;;1.53;;
291;SDS011;23311;48.776;9.162;2022-10-23T10:44:59;2.63;;;2.30;;
291;SDS011;23311;48.776;9.162;2022-10-23T10:47:54;1.70;;;1.20;;
291;SDS011;23311;48.776;9.162;2022-10-23T10:50:51;3.50;;;2.80;;
291;SDS011;23311;48.776;9.162;2022-10-23T10:53:27;3.33;;;2.40;;
291;SDS011;23311;48.776;9.162;2022-10-23T10:56:06;3.50;;;1.50;;
291;SDS011;23311;48.776;9.162;2022-10-23T10:58:38;1.53;;;1.13;;
291;SDS011;23311;48.776;9.162;2022-10-23T11:01:13;1.93;;;1.10;;
291;SDS011;23311;48.776;9.162;2022-10-23T11:03:53;1.57;;;1.00;;
291;SDS011;23311;48.776;9.162;2022-10-23T11:06:27;1.80;;;0.90;;
291;SDS011;23311;48.776;9.162;2022-10-23T11:09:02;1.30;;;1.00;;
291;SDS011;23311;48.776;9.162;2022-10-23T11:11:47;1.97;;;1.00;;
291;SDS011;23311;48.776;9.162;2022-10-23T11:14:16;1.77;;;1.00;;
291;SDS011;23311;48.776;9.162;2022-10-23T11:16:47;2.17;;;1.00;;
291;SDS011;23311;48.776;9.162;2022-10-23T11:19:19;3.43;;;1.20;;
291;SDS011;23311;48.776;9.162;2022-10-23T11:21:53;2.70;;;1.00;;
291;SDS011;23311;48.776;9.162;2022-10-23T11:27:35;1.33;;;1.00;;
291;SDS011;23311;48.776;9.162;2022-10-23T11:30:17;1.87;;;0.90;;
291;SDS011;23311;48.776;9.162;2022-10-23T11:32:54;1.30;;;0.83;;
291;SDS011;23311;48.776;9.162;2022-10-23T11:35:41;3.40;;;1.70;;
291;SDS011;23311;48.776;9.162;2022-10-23T11:40:57;4.10;;;3.93;;
291;SDS011;23311;48.776;9.162;2022-10-23T11:43:30;2.90;;;2.07;;
291;SDS011;23311;48.776;9.162;2022-10-23T11:46:10;2.50;;;2.30;;
291;SDS011;23311;48.776;9.162;2022-10-23T11:48:40;2.23;;;1.90;;
291;SDS011;23311;48.776;9.162;2022-10-23T11:51:25;2.83;;;2.10;;
291;SDS011;23311;48.776;9.162;2022-10-23T11:54:04;4.53;;;2.30;;
291;SDS011;23311;48.776;9.162;2022-10-23T11:56:33;3.77;;;2.13;;
291;SDS011;23311;48.776;9.162;2022-10-23T12:01:49;6.93;;;2.23;;
291;SDS011;23311;48.776;9.162;2022-10-23T12:04:21;4.60;;;1.93;;
291;SDS011;23311;48.776;9.162;2022-10-23T12:06:51;3.73;;;2.53;;
291;SDS011;23311;48.776;9.162;2022-10-23T12:09:23;3.63;;;2.23;;
291;SDS011;23311;48.776;9.162;2022-10-23T12:12:11;5.00;;;2.30;;
291;SDS011;23311;48.776;9.162;2022-10-23T12:14:44;2.67;;;2.47;;
291;SDS011;23311;48.776;9.162;2022-10-23T12:17:17;3.13;;;1.83;;
291;SDS011;23311;48.776;9.162;2022-10-23T12:20:00;3.90;;;2.17;;
291;SDS011;23311;48.776;9.162;2022-10-23T12:22:40;3.37;;;2.23;;
291;SDS011;23311;48.776;9.162;2022-10-23T12:25:14;4.60;;;2.07;;
291;SDS011;23311;48.776;9.162;2022-10-23T12:27:46;2.60;;;2.23;;
291;SDS011;23311;48.776;9.162;2022-10-23T12:30:21;4.30;;;2.80;;
291;SDS011;23311;48.776;9.162;2022-10-23T12:32:56;2.60;;;2.47;;
291;SDS011;23311;48.776;9.162;2022-10-23T12:38:38;1.80;;;1.03;;
291;SDS011;23311;48.776;9.162;2022-10-23T12:41:12;1.30;;;1.03;;
291;SDS011;23311;48.776;9.162;2022-10-23T12:43:41;4.20;;;1.53;;
291;SDS011;23311;48.776;9.162;2022-10-23T12:46:28;2.33;;;1.23;;
291;SDS011;23311;48.776;9.162;2022-10-23T12:48:59;1.50;;;1.03;;
291;SDS011;23311;48.776;9.162;2022-10-23T12:51:30;2.37;;;1.40;;
291;SDS011;23311;48.776;9.162;2022-10-23T12:53:59;3.50;;;1.73;;
291;SDS011;23311;48.776;9.162;2022-10-23T12:56:32;1.87;;;1.20;;
291;SDS011;23311;48.776;9.162;2022-10-23T12:59:02;1.97;;;1.00;;
291;SDS011;23311;48.776;9.162;2022-10-23T13:01:33;4.63;;;1.83;;
291;SDS011;23311;48.776;9.162;2022-10-23T13:04:06;3.03;;;1.43;;
291;SDS011;23311;48.776;9.162;2022-10-23T13:06:40;2.07;;;1.83;;
291;SDS011;23311;48.776;9.162;2022-10-23T13:09:14;3.57;;;1.53;;
291;SDS011;23311;48.776;9.162;2022-10-23T13:11:48;2.17;;;1.73;;
291;SDS011;23311;48.776;9.162;2022-10-23T13:14:27;3.30;;;2.07;;
291;SDS011;23311;48.776;9.162;2022-10-23T13:17:00;3.70;;;2.43;;
291;SDS011;23311;48.776;9.162;2022-10-23T13:19:29;3.00;;;2.07;;
291;SDS011;23311;48.776;9.162;2022-10-23T13:21:57;4.50;;;3.00;;
291;SDS011;23311;48.776;9.162;2022-10-23T13:24:27;4.43;;;4.07;;
291;SDS011;23311;48.776;9.162;2022-10-23T13:26:57;4.60;;;4.30;;
291;SDS011;23311;48.776;9.162;2022-10-23T13:29:25;4.30;;;3.73;;
291;SDS011;23311;48.776;9.162;2022-10-23T13:31:55;3.77;;;3.00;;
291;SDS011;23311;48.776;9.162;2022-10-23T13:34:26;2.27;;;2.07;;
291;SDS011;23311;48.776;9.162;2022-10-23T13:37:00;2.67;;;2.30;;
291;SDS011;23311;48.776;9.162;2022-10-23T13:39:30;2.47;;;2.27;;
291;SDS011;23311;48.776;9.162;2022-10-23T13:42:07;3.07;;;2.20;;
291;SDS011;23311;48.776;9.162;2022-10-23T13:44:38;4.40;;;2.33;;
291;SDS011;23311;48.776;9.162;2022-10-23T13:47:09;4.27;;;3.20;;
291;SDS011;23311;48.776;9.162;2022-10-23T13:49:40;3.10;;;2.90;;
291;SDS011;23311;48.776;9.162;2022-10-23T13:52:08;3.00;;;2.80;;
291;SDS011;23311;48.776;9.162;2022-10-23T13:54:39;4.63;;;3.60;;
291;SDS011;23311;48.776;9.162;2022-10-23T13:57:09;3.63;;;3.00;;
291;SDS011;23311;48.776;9.162;2022-10-23T13:59:40;4.20;;;3.10;;
291;SDS011;23311;48.776;9.162;2022-10-23T14:02:12;5.67;;;3.27;;
291;SDS011;23311;48.776;9.162;2022-10-23T14:04:47;4.93;;;3.30;;
291;SDS011;23311;48.776;9.162;2022-10-23T14:07:15;4.00;;;2.87;;
291;SDS011;23311;48.776;9.162;2022-10-23T14:09:43;4.23;;;3.00;;
291;SDS011;23311;48.776;9.162;2022-10-23T14:12:11;4.40;;;3.73;;
291;SDS011;23311;48.776;9.162;2022-10-23T14:14:40;5.70;;;3.40;;
291;SDS011;23311;48.776;9.162;2022-10-23T14:17:08;5.37;;;3.53;;
291;SDS011;23311;48.776;9.162;2022-10-23T14:19:36;4.30;;;3.60;;
291;SDS011;23311;48.776;9.162;2022-10-23T14:22:05;4.90;;;2.57;;
291;SDS011;23311;48.776;9.162;2022-10-23T14:24:34;3.10;;;2.80;;
291;SDS011;23311;48.776;9.162;2022-10-23T14:27:02;3.00;;;2.90;;
291;SDS011;23311;48.776;9.162;2022-10-23T14:29:30;3.20;;;2.53;;
291;SDS011;23311;48.776;9.162;2022-10-23T14:31:59;3.20;;;2.90;;
291;SDS011;23311;48.776;9.162;2022-10-23T14:34:27;2.80;;;2.50;;
291;SDS011;23311;48.776;9.162;2022-10-23T14:36:55;3.20;;;2.40;;
291;SDS011;23311;48.776;9.162;2022-10-23T14:39:35;3.23;;;2.50;;
291;SDS011;23311;48.776;9.162;2022-10-23T14:42:03;4.30;;;2.70;;
291;SDS011;23311;48.776;9.162;2022-10-23T14:44:31;4.60;;;2.30;;
291;SDS011;23311;48.776;9.162;2022-10-23T14:47:00;3.50;;;3.17;;
291;SDS011;23311;48.776;9.162;2022-10-23T14:49:28;3.37;;;3.17;;
291;SDS011;23311;48.776;9.162;2022-10-23T14:51:56;7.03;;;5.20;;
291;SDS011;23311;48.776;9.162;2022-10-23T14:54:24;8.10;;;5.80;;
291;SDS011;23311;48.776;9.162;2022-10-23T14:56:56;3.93;;;3.23;;
291;SDS011;23311;48.776;9.162;2022-10-23T14:59:24;3.97;;;3.20;;
291;SDS011;23311;48.776;9.162;2022-10-23T15:01:52;4.37;;;3.10;;
291;SDS011;23311;48.776;9.162;2022-10-23T15:04:20;6.80;;;4.40;;
291;SDS011;23311;48.776;9.162;2022-10-23T15:06:49;7.23;;;3.10;;
291;SDS011;23311;48.776;9.162;2022-10-23T15:09:17;5.57;;;3.70;;
291;SDS011;23311;48.776;9.162;2022-10-23T15:11:46;4.87;;;4.10;;
291;SDS011;23311;48.776;9.162;2022-10-23T15:14:15;4.43;;;3.87;;
291;SDS011;23311;48.776;9.162;2022-10-23T15:16:43;6.37;;;3.63;;
291;SDS011;23311;48.776;9.162;2022-10-23T15:19:13;6.90;;;4.30;;
291;SDS011;23311;48.776;9.162;2022-10-23T15:21:44;5.63;;;4.37;;
291;SDS011;23311;48.776;9.162;2022-10-23T15:24:13;5.47;;;4.40;;
291;SDS011;23311;48.776;9.162;2022-10-23T15:26:41;4.50;;;4.00;;
291;SDS011;23311;48.776;9.162;2022-10-23T15:29:10;4.20;;;3.97;;
291;SDS011;23311;48.776;9.162;2022-10-23T15:31:51;5.33;;;4.07;;
291;SDS011;23311;48.776;9.162;2022-10-23T15:34:21;8.30;;;4.07;;
291;SDS011;23311;48.776;9.162;2022-10-23T15:36:51;6.80;;;4.20;;
291;SDS011;23311;48.776;9.162;2022-10-23T15:39:21;6.67;;;4.90;;
291;SDS011;23311;48.776;9.162;2022-10-23T15:41:51;6.77;;;4.03;;
291;SDS011;23311;48.776;9.162;2022-10-23T15:44:20;5.30;;;3.73;;
291;SDS011;23311;48.776;9.162;2022-10-23T15:46:51;4.43;;;3.97;;
291;SDS011;23311;48.776;9.162;2022-10-23T15:49:22;3.83;;;3.60;;
291;SDS011;23311;48.776;9.162;2022-10-23T15:51:51;4.10;;;3.40;;
291;SDS011;23311;48.776;9.162;2022-10-23T15:54:20;4.67;;;4.10;;